Time;durP1;ratioP1;P1;durP2;ratioP2;P2;SDS_P1;SDS_P2;PMS_P1;PMS_P2;Temp;Humidity;BMP_temperature;BMP_pressure;BME280_temperature;BME280_humidity;BME280_pressure;Samples;Min_cycle;Max_cycle;Signal;HPM_P1;HPM_P2
2024/03/05 00:02:08;;;;;;;25.03;11.80;;;5.10;99.90;;;;;;4955665;28;20198;-55
2024/03/05 00:04:35;;;;;;;18.27;12.43;;;5.10;99.90;;;;;;4961993;28;20279;-54
2024/03/05 00:07:03;;;;;;;18.40;12.00;;;5.10;99.90;;;;;;4921490;28;22356;-51
2024/03/05 00:09:30;;;;;;;18.47;12.00;;;5.10;99.90;;;;;;4962715;28;20202;-54
2024/03/05 00:11:57;;;;;;;16.83;11.43;;;5.10;99.90;;;;;;4952996;28;20186;-55
2024/03/05 00:14:24;;;;;;;22.97;12.40;;;5.10;99.90;;;;;;4966808;28;20205;-56
2024/03/05 00:16:52;;;;;;;21.20;12.27;;;5.10;99.90;;;;;;4961254;28;20617;-55
2024/03/05 00:19:19;;;;;;;18.73;13.30;;;5.10;99.90;;;;;;4960686;28;20260;-55
2024/03/05 00:21:47;;;;;;;15.37;11.63;;;5.10;99.90;;;;;;4943053;28;20203;-56
2024/03/05 00:24:14;;;;;;;19.43;11.77;;;5.10;99.90;;;;;;4960221;28;20202;-56
2024/03/05 00:26:41;;;;;;;17.07;11.20;;;5.10;99.90;;;;;;4963892;28;20205;-54
2024/03/05 00:29:08;;;;;;;18.93;11.70;;;5.10;99.90;;;;;;4957473;28;20197;-54
2024/03/05 00:31:34;;;;;;;19.37;11.73;;;5.00;99.90;;;;;;4965936;28;20265;-55
2024/03/05 00:34:03;;;;;;;20.03;12.63;;;5.00;99.90;;;;;;4957496;28;20212;-52
2024/03/05 00:36:30;;;;;;;21.43;12.37;;;5.00;99.90;;;;;;4966070;28;20669;-52
2024/03/05 00:38:57;;;;;;;17.93;11.47;;;5.00;99.90;;;;;;4933997;28;20285;-52
2024/03/05 00:41:24;;;;;;;17.90;12.47;;;5.00;99.90;;;;;;4966121;28;20779;-55
2024/03/05 00:43:52;;;;;;;16.23;11.87;;;4.90;99.90;;;;;;4955650;28;20245;-51
2024/03/05 00:46:20;;;;;;;15.70;11.67;;;4.90;99.90;;;;;;4966416;28;20225;-53
2024/03/05 00:48:47;;;;;;;19.53;11.70;;;4.90;99.90;;;;;;4962266;28;20273;-55
2024/03/05 00:51:15;;;;;;;19.30;11.53;;;4.90;99.90;;;;;;4957341;28;20229;-56
2024/03/05 00:53:42;;;;;;;18.83;11.17;;;4.90;99.90;;;;;;4932964;28;20217;-55
2024/03/05 00:56:09;;;;;;;22.00;11.70;;;4.90;99.90;;;;;;4964547;28;20186;-56
2024/03/05 00:58:36;;;;;;;20.87;11.63;;;4.90;99.90;;;;;;4965079;28;20209;-54
2024/03/05 01:01:04;;;;;;;15.83;10.87;;;4.90;99.90;;;;;;4956038;28;20226;-55
2024/03/05 01:03:31;;;;;;;19.13;12.37;;;4.90;99.90;;;;;;4965550;28;20284;-55
2024/03/05 01:05:58;;;;;;;18.17;11.83;;;4.90;99.90;;;;;;4953969;28;20909;-56
2024/03/05 01:08:26;;;;;;;19.50;11.23;;;4.90;99.90;;;;;;4965936;28;20540;-56
2024/03/05 01:10:52;;;;;;;20.03;12.07;;;4.90;99.90;;;;;;4932619;28;20275;-52
2024/03/05 01:13:19;;;;;;;18.93;11.23;;;4.90;99.90;;;;;;4965286;28;20205;-51
2024/03/05 01:15:46;;;;;;;16.40;11.03;;;4.90;99.90;;;;;;4956510;28;20555;-55
2024/03/05 01:18:13;;;;;;;16.97;11.17;;;4.90;99.90;;;;;;4964846;28;20205;-54
2024/03/05 01:20:41;;;;;;;17.80;11.23;;;4.90;99.90;;;;;;4963803;28;20230;-54
2024/03/05 01:23:10;;;;;;;22.03;12.03;;;4.90;99.90;;;;;;4959500;28;20859;-54
2024/03/05 01:25:38;;;;;;;21.17;11.07;;;4.90;99.90;;;;;;4935806;28;20222;-54
2024/03/05 01:28:07;;;;;;;16.47;11.37;;;4.90;99.90;;;;;;4962932;28;20221;-56
2024/03/05 01:30:34;;;;;;;16.37;11.13;;;4.90;99.90;;;;;;4958719;28;20312;-55
2024/03/05 01:33:05;;;;;;;15.17;10.57;;;4.90;99.90;;;;;;4962273;28;20260;-55
2024/03/05 01:35:31;;;;;;;15.10;10.83;;;4.90;99.90;;;;;;4964298;28;20280;-53
2024/03/05 01:37:58;;;;;;;21.30;11.23;;;4.90;99.90;;;;;;4956064;28;20507;-52
2024/03/05 01:40:25;;;;;;;22.83;11.83;;;4.90;99.90;;;;;;4964948;28;20263;-54
2024/03/05 01:42:53;;;;;;;18.53;11.40;;;4.90;99.90;;;;;;4932128;28;20206;-55
2024/03/05 01:45:19;;;;;;;19.33;11.33;;;4.90;99.90;;;;;;4964718;28;20222;-50
2024/03/05 01:47:47;;;;;;;15.90;11.27;;;4.80;99.90;;;;;;4955871;28;20225;-54
2024/03/05 01:50:15;;;;;;;18.57;10.93;;;4.80;99.90;;;;;;4964322;28;20226;-53
2024/03/05 01:52:43;;;;;;;16.07;10.87;;;4.90;99.90;;;;;;4958098;28;20206;-55
2024/03/05 01:55:14;;;;;;;21.17;10.80;;;4.80;99.90;;;;;;4963578;28;20374;-56
2024/03/05 01:57:42;;;;;;;22.43;11.47;;;4.90;99.90;;;;;;4932944;28;20859;-56
2024/03/05 02:00:15;;;;;;;19.23;10.57;;;4.80;99.90;;;;;;4961880;28;20276;-50
2024/03/05 02:02:44;;;;;;;17.53;11.10;;;4.80;99.90;;;;;;4955970;28;20215;-56
2024/03/05 02:05:13;;;;;;;16.37;10.97;;;4.90;99.90;;;;;;4962329;28;20226;-52
2024/03/05 02:07:41;;;;;;;18.90;11.47;;;4.80;99.90;;;;;;4963333;28;20198;-54
2024/03/05 02:10:10;;;;;;;17.90;11.83;;;4.80;99.90;;;;;;4958456;28;20225;-55
2024/03/05 02:12:37;;;;;;;16.47;11.60;;;4.80;99.90;;;;;;4934389;28;20210;-55
2024/03/05 02:15:05;;;;;;;16.50;11.37;;;4.80;99.90;;;;;;4961571;28;20189;-52
2024/03/05 02:17:32;;;;;;;18.07;11.53;;;4.80;99.90;;;;;;4957816;28;20248;-56
2024/03/05 02:20:01;;;;;;;18.17;11.03;;;4.80;99.90;;;;;;4961096;28;20276;-55
2024/03/05 02:22:29;;;;;;;19.67;12.70;;;4.70;99.90;;;;;;4964226;28;20213;-55
2024/03/05 02:24:56;;;;;;;17.00;11.67;;;4.80;99.90;;;;;;4954672;28;20885;-56
2024/03/05 02:27:23;;;;;;;16.13;10.37;;;4.80;99.90;;;;;;4935691;28;20853;-55
2024/03/05 02:29:50;;;;;;;20.17;11.87;;;4.80;99.90;;;;;;4961168;28;20820;-54
2024/03/05 02:32:17;;;;;;;19.63;11.30;;;4.70;99.90;;;;;;4964133;28;20206;-53
2024/03/05 02:34:44;;;;;;;16.40;10.97;;;4.70;99.90;;;;;;4954725;28;20265;-55
2024/03/05 02:37:11;;;;;;;21.10;11.40;;;4.80;99.90;;;;;;4962802;28;20190;-54
2024/03/05 02:39:39;;;;;;;18.30;11.73;;;4.80;99.90;;;;;;4957126;28;20257;-54
2024/03/05 02:42:06;;;;;;;18.73;11.63;;;4.70;99.90;;;;;;4962064;28;20198;-54
2024/03/05 02:44:33;;;;;;;18.93;11.93;;;4.80;99.90;;;;;;4933902;28;20664;-55
2024/03/05 02:47:00;;;;;;;16.97;10.90;;;4.70;99.90;;;;;;4960939;28;20894;-54
2024/03/05 02:49:26;;;;;;;16.93;11.37;;;4.70;99.90;;;;;;4957293;28;20661;-53
2024/03/05 02:51:54;;;;;;;18.73;11.53;;;4.70;99.90;;;;;;4959710;28;20356;-55
2024/03/05 02:54:21;;;;;;;22.20;11.63;;;4.70;99.90;;;;;;4956659;28;20225;-56
2024/03/05 02:56:49;;;;;;;18.23;11.30;;;4.70;99.90;;;;;;4961236;28;20197;-55
2024/03/05 02:59:16;;;;;;;20.60;11.73;;;4.70;99.90;;;;;;4931538;28;20211;-56
2024/03/05 03:01:47;;;;;;;19.30;10.83;;;4.70;99.90;;;;;;4962019;28;20201;-54
2024/03/05 03:04:15;;;;;;;24.80;11.40;;;4.80;99.90;;;;;;4953997;28;20202;-52
2024/03/05 03:06:43;;;;;;;17.70;10.57;;;4.70;99.90;;;;;;4961821;28;20228;-54
2024/03/05 03:09:10;;;;;;;21.20;11.73;;;4.70;99.90;;;;;;4961294;28;20198;-56
2024/03/05 03:11:40;;;;;;;18.37;10.63;;;4.70;99.90;;;;;;4956695;28;20261;-55
2024/03/05 03:14:11;;;;;;;20.63;10.60;;;4.70;99.90;;;;;;4932799;28;20206;-52
2024/03/05 03:16:39;;;;;;;17.03;10.87;;;4.70;99.90;;;;;;4962350;28;20649;-54
2024/03/05 03:19:06;;;;;;;19.70;11.80;;;4.80;99.90;;;;;;4952263;28;20204;-56
2024/03/05 03:21:33;;;;;;;14.90;10.17;;;4.70;99.90;;;;;;4963753;28;20308;-56
2024/03/05 03:24:00;;;;;;;20.47;11.73;;;4.70;99.90;;;;;;4959754;28;20868;-56
2024/03/05 03:26:27;;;;;;;16.30;10.63;;;4.70;99.90;;;;;;4957311;28;20217;-54
2024/03/05 03:28:54;;;;;;;18.37;10.13;;;4.70;99.90;;;;;;4959533;28;20284;-53
2024/03/05 03:31:23;;;;;;;16.93;10.90;;;4.70;99.90;;;;;;4933799;28;20225;-55
2024/03/05 03:33:50;;;;;;;21.27;11.67;;;4.70;99.90;;;;;;4952696;28;20252;-56
2024/03/05 03:36:23;;;;;;;18.97;10.80;;;4.70;99.90;;;;;;4963218;28;20896;-52
2024/03/05 03:38:51;;;;;;;17.40;10.77;;;4.70;99.90;;;;;;4959825;28;20649;-55
2024/03/05 03:41:19;;;;;;;18.37;11.23;;;4.70;99.90;;;;;;4957668;28;20226;-56
2024/03/05 03:43:46;;;;;;;23.27;11.67;;;4.70;99.90;;;;;;4960268;28;20221;-55
2024/03/05 03:46:13;;;;;;;19.57;10.40;;;4.70;99.90;;;;;;4932230;28;20734;-55
2024/03/05 03:48:41;;;;;;;19.40;10.83;;;4.70;99.90;;;;;;4966850;28;20196;-54
2024/03/05 03:51:09;;;;;;;14.87;11.23;;;4.60;99.90;;;;;;4960932;28;20237;-52
2024/03/05 03:53:37;;;;;;;18.00;10.40;;;4.60;99.90;;;;;;4968934;28;20248;-56
2024/03/05 03:56:04;;;;;;;14.87;10.57;;;4.60;99.90;;;;;;4958636;28;20206;-56
2024/03/05 03:58:32;;;;;;;20.63;11.17;;;4.60;99.90;;;;;;4969396;28;20201;-54
2024/03/05 04:00:59;;;;;;;16.83;10.77;;;4.60;99.90;;;;;;4965991;28;20289;-55
2024/03/05 04:03:26;;;;;;;17.50;11.27;;;4.60;99.90;;;;;;4940022;28;20218;-54
2024/03/05 04:05:54;;;;;;;19.33;11.47;;;4.60;99.90;;;;;;4958357;28;21037;-54
2024/03/05 04:08:21;;;;;;;17.90;10.70;;;4.70;99.90;;;;;;4969587;28;20194;-55
2024/03/05 04:10:48;;;;;;;18.50;10.80;;;4.70;99.90;;;;;;4962160;28;20583;-56
2024/03/05 04:13:15;;;;;;;18.00;10.83;;;4.60;99.90;;;;;;4967377;28;20206;-53
2024/03/05 04:15:42;;;;;;;18.47;11.37;;;4.60;99.90;;;;;;4967546;28;20231;-55
2024/03/05 04:18:08;;;;;;;16.87;10.43;;;4.60;99.90;;;;;;4936130;28;20210;-54
2024/03/05 04:20:35;;;;;;;18.87;10.83;;;4.60;99.90;;;;;;4968620;28;20214;-55
2024/03/05 04:23:04;;;;;;;19.97;10.50;;;4.60;99.90;;;;;;4959729;28;20210;-53
2024/03/05 04:25:36;;;;;;;19.03;11.37;;;4.60;99.90;;;;;;4968811;28;20198;-53
2024/03/05 04:28:10;;;;;;;18.97;11.57;;;4.60;99.90;;;;;;4960920;28;20201;-55
2024/03/05 04:30:38;;;;;;;17.40;10.63;;;4.60;99.90;;;;;;4968172;28;20228;-55
2024/03/05 04:33:08;;;;;;;16.50;11.17;;;4.60;99.90;;;;;;4934178;28;20218;-55
2024/03/05 04:35:35;;;;;;;18.67;10.73;;;4.60;99.90;;;;;;4968176;28;20226;-55
2024/03/05 04:38:06;;;;;;;14.83;10.67;;;4.60;99.90;;;;;;4959558;28;20865;-54
2024/03/05 04:40:33;;;;;;;20.07;11.20;;;4.60;99.90;;;;;;4969242;28;20304;-53
2024/03/05 04:43:00;;;;;;;16.73;11.27;;;4.50;99.90;;;;;;4960571;28;20272;-52
2024/03/05 04:45:27;;;;;;;22.50;12.97;;;4.50;99.90;;;;;;4968682;28;20201;-51
2024/03/05 04:47:54;;;;;;;20.23;11.30;;;4.60;99.90;;;;;;4935299;28;20218;-57
2024/03/05 04:50:22;;;;;;;19.53;11.97;;;4.50;99.90;;;;;;4953390;28;20313;-54
2024/03/05 04:52:50;;;;;;;15.30;10.77;;;4.50;99.90;;;;;;4962827;28;20567;-53
2024/03/05 04:55:18;;;;;;;19.63;11.77;;;4.50;99.90;;;;;;4959568;28;20209;-53
2024/03/05 04:57:45;;;;;;;20.07;12.47;;;4.50;99.90;;;;;;4960549;28;20731;-55
2024/03/05 05:00:20;;;;;;;18.73;11.47;;;4.50;99.90;;;;;;4963367;28;20221;-56
2024/03/05 05:02:47;;;;;;;16.97;11.40;;;4.50;99.90;;;;;;4963981;28;20198;-56
2024/03/05 05:05:15;;;;;;;15.97;11.87;;;4.50;99.90;;;;;;4933758;28;20583;-55
2024/03/05 05:07:43;;;;;;;18.37;11.37;;;4.50;99.90;;;;;;4965705;28;20764;-55
2024/03/05 05:10:10;;;;;;;19.67;11.90;;;4.50;99.90;;;;;;4957230;28;20218;-53
2024/03/05 05:12:40;;;;;;;19.33;11.97;;;4.50;99.90;;;;;;4956278;28;20198;-51
2024/03/05 05:15:07;;;;;;;16.67;12.57;;;4.50;99.90;;;;;;4963659;28;20631;-54
2024/03/05 05:17:34;;;;;;;22.80;12.43;;;4.50;99.90;;;;;;4963242;28;20206;-51
2024/03/05 05:20:01;;;;;;;19.27;11.50;;;4.50;99.90;;;;;;4936060;28;20229;-56
2024/03/05 05:22:28;;;;;;;20.27;11.47;;;4.50;99.90;;;;;;4955503;28;20202;-53
2024/03/05 05:24:55;;;;;;;19.93;11.20;;;4.50;99.90;;;;;;4958957;28;21375;-56
2024/03/05 05:27:22;;;;;;;15.97;11.87;;;4.50;99.90;;;;;;4955061;28;20895;-55
2024/03/05 05:29:50;;;;;;;17.03;10.63;;;4.50;99.90;;;;;;4965710;28;20573;-56
2024/03/05 05:32:17;;;;;;;17.90;11.90;;;4.50;99.90;;;;;;4962209;28;20209;-55
2024/03/05 05:34:44;;;;;;;18.83;11.43;;;4.50;99.90;;;;;;4967926;28;20194;-55
2024/03/05 05:37:11;;;;;;;15.73;10.67;;;4.40;99.90;;;;;;4931846;28;20300;-56
2024/03/05 05:39:38;;;;;;;17.90;10.60;;;4.40;99.90;;;;;;4956082;28;20957;-55
2024/03/05 05:42:07;;;;;;;17.70;10.97;;;4.40;99.90;;;;;;4964564;28;20257;-54
2024/03/05 05:44:34;;;;;;;17.17;11.30;;;4.50;99.90;;;;;;4956254;28;20210;-54
2024/03/05 05:47:03;;;;;;;17.83;11.40;;;4.50;99.90;;;;;;4960919;28;20226;-55
2024/03/05 05:49:31;;;;;;;15.97;11.13;;;4.40;99.90;;;;;;4957673;28;20194;-52
2024/03/05 05:51:58;;;;;;;17.90;10.57;;;4.40;99.90;;;;;;4931319;28;20693;-54
2024/03/05 05:54:25;;;;;;;16.43;10.70;;;4.40;99.90;;;;;;4937753;28;20229;-54
2024/03/05 05:56:51;;;;;;;16.50;10.30;;;4.40;99.90;;;;;;4962974;28;20198;-54
2024/03/05 05:59:18;;;;;;;13.63;10.20;;;4.40;99.90;;;;;;4947818;28;20289;-54
2024/03/05 06:01:45;;;;;;;16.60;10.47;;;4.50;99.90;;;;;;4964911;28;20209;-55
2024/03/05 06:04:15;;;;;;;19.10;10.70;;;4.40;99.90;;;;;;4961473;28;20198;-54
2024/03/05 06:06:43;;;;;;;18.30;10.70;;;4.50;99.90;;;;;;4965677;28;20290;-53
2024/03/05 06:09:10;;;;;;;17.77;9.47;;;4.40;99.90;;;;;;4925886;28;20341;-54
2024/03/05 06:11:37;;;;;;;17.63;9.87;;;4.40;99.90;;;;;;4964842;28;20747;-54
2024/03/05 06:14:04;;;;;;;15.30;10.23;;;4.40;99.90;;;;;;4951391;28;20228;-55
2024/03/05 06:16:32;;;;;;;18.20;9.97;;;4.40;99.90;;;;;;4958014;28;20224;-54
2024/03/05 06:18:59;;;;;;;18.27;10.00;;;4.40;99.90;;;;;;4962496;28;20190;-54
2024/03/05 06:21:27;;;;;;;14.00;10.37;;;4.40;99.90;;;;;;4964396;28;20218;-53
2024/03/05 06:23:55;;;;;;;16.60;8.87;;;4.40;99.90;;;;;;4930811;28;20206;-53
2024/03/05 06:26:21;;;;;;;15.83;8.47;;;4.40;99.90;;;;;;4960141;28;20192;-53
2024/03/05 06:28:48;;;;;;;15.03;9.13;;;4.40;99.90;;;;;;4962080;28;20256;-54
2024/03/05 06:31:15;;;;;;;17.13;8.80;;;4.50;99.90;;;;;;4948221;28;20539;-51
2024/03/05 06:33:42;;;;;;;11.20;8.03;;;4.40;99.90;;;;;;4950633;28;20210;-51
2024/03/05 06:36:11;;;;;;;18.53;9.63;;;4.40;99.90;;;;;;4962848;28;20204;-51
2024/03/05 06:38:39;;;;;;;14.10;9.13;;;4.40;99.90;;;;;;4923568;28;21957;-51
2024/03/05 06:41:06;;;;;;;14.10;8.17;;;4.40;99.90;;;;;;4956336;28;20276;-54
2024/03/05 06:43:36;;;;;;;13.50;9.37;;;4.40;99.90;;;;;;4960697;28;20285;-54
2024/03/05 06:46:03;;;;;;;13.43;9.00;;;4.50;99.90;;;;;;4957261;28;20265;-52
2024/03/05 06:48:32;;;;;;;14.50;9.00;;;4.50;99.90;;;;;;4955289;28;20228;-53
2024/03/05 06:51:01;;;;;;;14.43;8.80;;;4.50;99.90;;;;;;4963878;28;20218;-51
2024/03/05 06:58:58;;;;;;;15.07;8.87;;;4.50;99.90;;;;;;4963618;28;20198;-52
2024/03/05 07:01:28;;;;;;;11.37;8.53;;;4.50;99.90;;;;;;4957221;28;20292;-52
2024/03/05 07:03:55;;;;;;;17.33;9.70;;;4.50;99.90;;;;;;4954146;28;20194;-52
2024/03/05 07:06:23;;;;;;;12.87;9.20;;;4.50;99.90;;;;;;4962143;28;20315;-53
2024/03/05 07:08:51;;;;;;;10.27;8.00;;;4.50;99.90;;;;;;4931408;28;20213;-50
2024/03/05 07:11:20;;;;;;;14.20;8.83;;;4.50;99.90;;;;;;4953887;28;20648;-54
2024/03/05 07:13:48;;;;;;;12.73;8.50;;;4.50;99.90;;;;;;4955357;28;20194;-52
2024/03/05 07:16:16;;;;;;;14.37;9.37;;;4.50;99.90;;;;;;4963252;28;20613;-55
2024/03/05 07:18:44;;;;;;;12.93;8.60;;;4.50;99.90;;;;;;4952638;28;20849;-53
2024/03/05 07:21:11;;;;;;;12.23;8.07;;;4.50;99.90;;;;;;4961689;28;20273;-52
2024/03/05 07:23:39;;;;;;;11.80;7.97;;;4.60;99.90;;;;;;4929189;28;21063;-50
2024/03/05 07:26:06;;;;;;;9.50;7.00;;;4.50;99.90;;;;;;4954350;28;20205;-52
2024/03/05 07:28:35;;;;;;;12.17;7.70;;;4.60;99.90;;;;;;4952687;28;20234;-51
2024/03/05 07:31:01;;;;;;;12.40;8.67;;;4.60;99.90;;;;;;4963172;28;20225;-51
2024/03/05 07:33:28;;;;;;;14.83;8.40;;;4.60;99.90;;;;;;4951890;28;20252;-54
2024/03/05 07:35:55;;;;;;;13.13;8.03;;;4.60;99.90;;;;;;4962326;28;20661;-52
2024/03/05 07:38:22;;;;;;;10.10;7.77;;;4.70;99.90;;;;;;4961749;28;20194;-53
2024/03/05 07:40:49;;;;;;;10.37;8.40;;;4.70;99.90;;;;;;4929461;28;20217;-53
2024/03/05 07:43:16;;;;;;;9.47;8.07;;;4.70;99.90;;;;;;4941220;28;20204;-52
2024/03/05 07:45:44;;;;;;;13.63;7.57;;;4.80;99.90;;;;;;4961703;28;20205;-53
2024/03/05 07:48:12;;;;;;;13.63;8.13;;;4.80;99.90;;;;;;4961105;28;20214;-52
2024/03/05 07:50:39;;;;;;;11.90;7.60;;;4.80;99.90;;;;;;4940797;28;20963;-53
2024/03/05 07:53:06;;;;;;;13.90;7.60;;;4.80;99.90;;;;;;4955557;28;20213;-53
2024/03/05 07:55:37;;;;;;;11.10;7.57;;;4.90;99.90;;;;;;4931976;28;20234;-53
2024/03/05 07:58:06;;;;;;;11.43;8.03;;;4.90;99.90;;;;;;4947863;28;20238;-52
2024/03/05 08:00:35;;;;;;;12.57;7.07;;;4.90;99.90;;;;;;4936638;28;20241;-53
2024/03/05 08:03:04;;;;;;;16.93;7.27;;;4.90;99.90;;;;;;4953038;28;20205;-50
2024/03/05 08:05:31;;;;;;;10.43;7.03;;;4.90;99.90;;;;;;4941820;28;20280;-53
2024/03/05 08:07:59;;;;;;;9.33;6.63;;;4.90;99.90;;;;;;4954190;28;20210;-51
2024/03/05 08:10:26;;;;;;;11.43;6.73;;;5.00;99.90;;;;;;4943526;28;20222;-53
2024/03/05 08:12:55;;;;;;;11.90;7.07;;;5.00;99.90;;;;;;4942660;28;20221;-52
2024/03/05 08:15:24;;;;;;;10.57;6.70;;;5.00;99.90;;;;;;4952785;28;20217;-52
2024/03/05 08:17:52;;;;;;;9.83;6.93;;;5.10;99.90;;;;;;4959426;28;20187;-51
2024/03/05 08:20:24;;;;;;;9.50;6.67;;;5.10;99.90;;;;;;4950763;28;20845;-50
2024/03/05 08:22:51;;;;;;;14.03;7.33;;;5.10;99.90;;;;;;4945045;28;20210;-51
2024/03/05 08:25:18;;;;;;;10.07;6.23;;;5.10;99.90;;;;;;4955887;28;20264;-52
2024/03/05 08:27:47;;;;;;;9.43;5.77;;;5.20;99.90;;;;;;4926564;28;20229;-51
2024/03/05 08:30:16;;;;;;;11.17;6.60;;;5.20;99.90;;;;;;4946071;28;20300;-52
2024/03/05 08:32:44;;;;;;;11.73;6.23;;;5.20;99.90;;;;;;4958366;28;20202;-48
2024/03/05 08:35:12;;;;;;;9.60;6.23;;;5.20;99.90;;;;;;4957467;28;20538;-51
2024/03/05 08:37:41;;;;;;;11.87;6.53;;;5.10;99.90;;;;;;4954323;28;20217;-51
2024/03/05 08:40:13;;;;;;;10.43;6.90;;;5.10;99.90;;;;;;4954516;28;20692;-52
2024/03/05 08:42:42;;;;;;;10.47;6.97;;;5.10;99.90;;;;;;4934514;28;20703;-53
2024/03/05 08:45:10;;;;;;;14.10;7.13;;;5.10;99.90;;;;;;4950659;28;20224;-50
2024/03/05 08:47:37;;;;;;;14.30;7.87;;;5.10;99.90;;;;;;4961959;28;20636;-51
2024/03/05 08:50:05;;;;;;;13.50;7.50;;;5.10;99.90;;;;;;4964280;28;20773;-51
2024/03/05 08:52:33;;;;;;;12.37;7.17;;;5.20;99.90;;;;;;4947401;28;20321;-49
2024/03/05 08:55:01;;;;;;;10.03;6.80;;;5.20;99.90;;;;;;4956710;28;20225;-53
2024/03/05 08:57:28;;;;;;;9.43;7.33;;;5.30;99.90;;;;;;4918747;28;20210;-51
2024/03/05 08:59:55;;;;;;;10.93;7.20;;;5.30;99.90;;;;;;4950638;28;20225;-49
2024/03/05 09:02:23;;;;;;;11.83;7.57;;;5.40;99.90;;;;;;4951442;28;20214;-51
2024/03/05 09:04:51;;;;;;;11.60;7.03;;;5.60;99.90;;;;;;4941065;28;20241;-50
2024/03/05 09:07:18;;;;;;;14.10;6.90;;;5.70;99.90;;;;;;4936443;28;20270;-52
2024/03/05 09:09:45;;;;;;;9.33;6.70;;;5.80;99.90;;;;;;4955418;28;20219;-48
2024/03/05 09:12:14;;;;;;;13.07;7.60;;;5.90;99.90;;;;;;4930660;28;20206;-51
2024/03/05 09:14:41;;;;;;;12.00;7.53;;;6.00;99.90;;;;;;4948643;28;20702;-49
2024/03/05 09:17:08;;;;;;;15.17;7.93;;;6.00;99.90;;;;;;4957759;28;20351;-52
2024/03/05 09:19:35;;;;;;;11.20;6.90;;;6.00;99.90;;;;;;4952946;28;20446;-51
2024/03/05 09:22:04;;;;;;;10.70;7.27;;;5.90;99.90;;;;;;4950068;28;20254;-47
2024/03/05 09:24:31;;;;;;;9.63;8.00;;;5.90;99.90;;;;;;4946580;28;20198;-50
2024/03/05 09:26:59;;;;;;;13.00;7.57;;;6.00;99.90;;;;;;4954890;28;20285;-52
2024/03/05 09:29:27;;;;;;;9.80;7.10;;;6.00;99.90;;;;;;4932343;28;20210;-49
2024/03/05 09:31:54;;;;;;;14.27;7.60;;;6.00;99.90;;;;;;4956203;28;20249;-52
2024/03/05 09:34:22;;;;;;;8.73;6.87;;;5.90;99.90;;;;;;4954955;28;20221;-47
2024/03/05 09:36:49;;;;;;;10.87;7.07;;;6.00;99.90;;;;;;4950536;28;20668;-47
2024/03/05 09:39:18;;;;;;;12.30;6.60;;;6.00;99.90;;;;;;4934867;28;20189;-50
2024/03/05 09:41:45;;;;;;;12.63;7.33;;;6.10;99.90;;;;;;4964512;28;20257;-51
2024/03/05 09:44:13;;;;;;;10.83;6.73;;;6.20;99.90;;;;;;4934131;28;20221;-56
2024/03/05 09:46:45;;;;;;;7.97;6.23;;;6.40;99.90;;;;;;4956282;28;20688;-46
2024/03/05 09:49:15;;;;;;;9.87;6.20;;;6.40;99.90;;;;;;4952872;28;21439;-54
2024/03/05 09:51:43;;;;;;;8.10;5.50;;;6.40;99.90;;;;;;4954492;28;20226;-52
2024/03/05 09:54:11;;;;;;;9.23;6.00;;;6.50;99.90;;;;;;4938990;28;20233;-54
2024/03/05 09:56:41;;;;;;;10.30;5.83;;;6.60;99.90;;;;;;4955042;28;20202;-47
2024/03/05 09:59:11;;;;;;;10.23;5.37;;;6.70;99.90;;;;;;4939304;28;20198;-56
2024/03/05 10:01:43;;;;;;;8.03;6.10;;;6.60;99.90;;;;;;4952404;28;20214;-52
2024/03/05 10:04:15;;;;;;;15.23;6.73;;;6.60;99.90;;;;;;4946696;28;20807;-55
2024/03/05 10:06:44;;;;;;;11.37;5.73;;;6.70;99.90;;;;;;4964850;28;20202;-49
2024/03/05 10:09:12;;;;;;;9.43;5.77;;;6.80;99.90;;;;;;4936064;28;20247;-55
2024/03/05 10:11:41;;;;;;;8.37;5.70;;;6.80;99.90;;;;;;4954706;28;20593;-47
2024/03/05 10:14:08;;;;;;;10.60;5.30;;;6.80;99.90;;;;;;4960957;28;20198;-56
2024/03/05 10:16:35;;;;;;;12.50;5.60;;;6.70;99.90;;;;;;4928132;28;20233;-46
2024/03/05 10:19:13;;;;;;;8.53;5.30;;;6.70;99.90;;;;;;4943675;28;20262;-55
2024/03/05 10:21:40;;;;;;;8.20;5.37;;;6.80;99.90;;;;;;4963246;28;20244;-49
2024/03/05 10:24:07;;;;;;;11.63;5.93;;;6.90;99.90;;;;;;4948138;28;20610;-53
2024/03/05 10:26:35;;;;;;;10.90;6.07;;;7.00;99.90;;;;;;4947481;28;20249;-50
2024/03/05 10:29:07;;;;;;;5.80;5.20;;;7.00;99.90;;;;;;4950693;28;20947;-50
2024/03/05 10:31:36;;;;;;;6.63;4.73;;;7.00;99.90;;;;;;4933897;28;20361;-52
2024/03/05 10:34:03;;;;;;;8.47;5.30;;;7.00;99.90;;;;;;4945675;28;20759;-50
2024/03/05 10:36:33;;;;;;;9.77;4.90;;;7.00;99.90;;;;;;4956756;28;20220;-51
2024/03/05 10:39:01;;;;;;;5.47;4.60;;;7.00;99.90;;;;;;4950065;28;20198;-53
2024/03/05 10:41:33;;;;;;;14.67;5.27;;;7.00;99.90;;;;;;4947649;28;20274;-54
2024/03/05 10:44:01;;;;;;;5.93;4.53;;;7.10;99.90;;;;;;4954108;28;20216;-54
2024/03/05 10:46:30;;;;;;;5.57;4.70;;;7.20;99.90;;;;;;4964458;28;20285;-51
2024/03/05 10:48:58;;;;;;;5.53;4.77;;;7.30;99.90;;;;;;4927762;28;20214;-51
2024/03/05 10:51:28;;;;;;;11.33;4.70;;;7.40;99.90;;;;;;4948083;28;20229;-48
2024/03/05 10:53:59;;;;;;;7.97;4.97;;;7.50;99.90;;;;;;4960091;28;20198;-53
2024/03/05 10:56:27;;;;;;;5.40;4.57;;;7.70;99.90;;;;;;4951079;28;20285;-50
2024/03/05 10:59:22;;;;;;;7.00;4.43;;;7.80;99.90;;;;;;4955715;28;20290;-51
2024/03/05 11:01:54;;;;;;;7.67;4.83;;;7.90;99.90;;;;;;4964408;28;20198;-52
2024/03/05 11:04:22;;;;;;;5.23;4.73;;;7.90;99.90;;;;;;4921331;28;20206;-53
2024/03/05 11:06:52;;;;;;;4.87;4.03;;;8.00;99.90;;;;;;4940717;28;20256;-55
2024/03/05 11:09:21;;;;;;;5.70;3.93;;;7.90;99.90;;;;;;4956696;28;20308;-53
2024/03/05 11:11:52;;;;;;;5.07;4.47;;;8.00;99.90;;;;;;4946237;28;20732;-50
2024/03/05 11:14:21;;;;;;;5.87;4.23;;;8.00;99.90;;;;;;4951790;28;20214;-50
2024/03/05 11:16:57;;;;;;;5.93;4.33;;;8.00;99.90;;;;;;4964586;28;20210;-50
2024/03/05 11:19:26;;;;;;;5.87;4.20;;;8.00;99.90;;;;;;4923853;28;20202;-51
2024/03/05 11:21:53;;;;;;;5.77;4.73;;;8.00;99.90;;;;;;4953285;28;20684;-53
2024/03/05 11:24:21;;;;;;;4.53;4.13;;;8.10;99.90;;;;;;4949688;28;20280;-53
2024/03/05 11:26:49;;;;;;;5.83;4.33;;;8.20;99.90;;;;;;4958554;28;20217;-50
2024/03/05 11:29:37;;;;;;;5.60;4.40;;;8.30;99.90;;;;;;4953547;28;20221;-51
2024/03/05 11:32:04;;;;;;;4.30;3.77;;;8.20;99.90;;;;;;4960874;28;20301;-50
2024/03/05 11:34:35;;;;;;;4.83;4.00;;;8.10;99.90;;;;;;4923693;28;20280;-50
2024/03/05 11:37:09;;;;;;;5.43;4.13;;;8.20;99.90;;;;;;4949257;28;20744;-52
2024/03/05 11:39:43;;;;;;;4.97;4.17;;;8.30;99.90;;;;;;4952729;28;20197;-55
2024/03/05 11:42:18;;;;;;;8.27;3.87;;;8.50;99.90;;;;;;4949846;28;20637;-54
2024/03/05 11:44:54;;;;;;;5.93;4.03;;;8.50;99.90;;;;;;4969428;28;20201;-51
2024/03/05 11:47:23;;;;;;;5.73;4.40;;;8.40;99.90;;;;;;4937573;28;20206;-54
2024/03/05 11:49:50;;;;;;;7.07;4.53;;;8.30;99.90;;;;;;4925547;28;20301;-54
2024/03/05 11:52:19;;;;;;;5.27;4.30;;;8.30;99.90;;;;;;4946279;28;20210;-51
2024/03/05 11:55:00;;;;;;;5.27;3.77;;;8.30;99.90;;;;;;4920525;28;20301;-53
2024/03/05 11:57:27;;;;;;;6.43;4.73;;;8.20;99.90;;;;;;4956487;28;20253;-54
2024/03/05 11:59:54;;;;;;;5.43;4.73;;;8.20;99.90;;;;;;4945459;28;20372;-50
2024/03/05 12:02:22;;;;;;;5.50;4.10;;;8.30;99.90;;;;;;4953527;28;20304;-53
2024/03/05 12:04:50;;;;;;;8.00;4.50;;;8.30;99.90;;;;;;4923835;28;20206;-55
2024/03/05 12:07:18;;;;;;;5.57;4.47;;;8.40;99.90;;;;;;4965190;28;20221;-52
2024/03/05 12:09:47;;;;;;;7.17;4.57;;;8.30;99.90;;;;;;4953876;28;20701;-50
2024/03/05 12:12:16;;;;;;;4.83;4.43;;;8.40;99.90;;;;;;4958190;28;20245;-50
2024/03/05 12:14:54;;;;;;;5.03;4.40;;;8.50;99.90;;;;;;4957641;28;20202;-55
2024/03/05 12:17:21;;;;;;;8.10;4.33;;;8.50;99.90;;;;;;4954892;28;20284;-52
2024/03/05 12:19:57;;;;;;;5.93;4.60;;;8.70;99.90;;;;;;4931192;28;20249;-53
2024/03/05 12:22:23;;;;;;;7.20;3.97;;;8.70;99.90;;;;;;4967733;28;20728;-52
2024/03/05 12:24:52;;;;;;;4.30;3.90;;;8.60;99.90;;;;;;4954322;28;20225;-53
2024/03/05 12:27:19;;;;;;;5.13;4.47;;;8.60;99.90;;;;;;4959499;28;20739;-52
2024/03/05 12:29:46;;;;;;;4.10;3.80;;;8.60;99.90;;;;;;4959419;28;20245;-52
2024/03/05 12:32:13;;;;;;;8.80;4.73;;;8.60;99.90;;;;;;4952043;28;20210;-54
2024/03/05 12:34:43;;;;;;;4.43;4.03;;;8.80;99.90;;;;;;4952626;28;20194;-54
2024/03/05 12:37:11;;;;;;;6.77;3.87;;;8.80;99.90;;;;;;4943603;28;20202;-51
2024/03/05 12:39:39;;;;;;;5.00;4.50;;;8.90;99.90;;;;;;4964522;28;20728;-55
2024/03/05 12:42:11;;;;;;;5.73;4.37;;;8.80;99.90;;;;;;4955822;28;20236;-52
2024/03/05 12:44:38;;;;;;;7.10;4.40;;;8.60;99.90;;;;;;4958443;28;20202;-52
2024/03/05 12:47:10;;;;;;;4.90;4.40;;;8.50;99.90;;;;;;4956350;28;20272;-51
2024/03/05 12:49:45;;;;;;;7.13;4.43;;;8.40;99.90;;;;;;4960064;28;20251;-54
2024/03/05 12:52:12;;;;;;;4.07;3.73;;;8.30;99.90;;;;;;4927973;28;20399;-53
2024/03/05 12:54:40;;;;;;;5.80;4.13;;;8.20;99.90;;;;;;4962558;28;20556;-52
2024/03/05 12:57:09;;;;;;;7.93;4.10;;;8.10;99.90;;;;;;4956920;28;20936;-55